map of YDB home
YDB - Airport
Location
City:  Burwash Landings, Yukon, Canada
ICAO:CYDB
IATA:YDB

Details
Type:Airport (Airfield)
Latitude:6122'16"N (61.371111)
Longitude:13902'26"W (-139.040555)
Datum:WGS 1984
Elevation:2647 ft (807 m)
Variation:18.85E (WMM2015 magnetic declination)
-0.35 annual change
Runways:1
Longest:5000 × 100 ft (1524 × 30.5 m)

Weather
METAR:CYDB 180500Z AUTO 30008KT 9SM -SN OVC011 M13/M15 A2968 RMK SLP117
TAF:CYDB 180538Z 1806/1818 30005KT P6SM OVC012
TEMPO 1806/1818 4SM -SN BR OVC008
RMK FCST BASED ON AUTO OBS. NXT FCST BY 181200Z

Related Locations
Nearby:
Farthest:NZSP: 10445 mi / 16809 km
Amundsen-Scott South Pole Station [Jack F. Paulus Skiway], AQ

Find:

   beyond  
but within

Other Information
Maps:
NOTAMs:
Links:
Sources:

  
  • flag of Canada
  • flag of Yukon
  

Airport Diagram

Airport diagram for YDB

Airport diagram PDF

Sectional Chart

Flight Planning
at skyvector.com

Satellite Image

Google Maps Satellite view

 

Copyright © 2004-2019 Karl L. Swartz. All rights reserved.
The Great Circle Mapper name and logo are trademarks of the Great Circle Mapper.
All other trademarks mentioned herein belong to their respective owners.
Please see credits for attibutions and further copyright information.

  Follow gcmap on Facebook Follow gcmap on Twitter Follow gcmap on Google+ GCmap on LinkedIn

hCard Microformat

Geo Microformat